Time;durP1;ratioP1;P1;durP2;ratioP2;P2;SDS_P1;SDS_P2;PMS_P1;PMS_P2;Temp;Humidity;BMP_temperature;BMP_pressure;BME280_temperature;BME280_humidity;BME280_pressure;Samples;Min_cycle;Max_cycle;Signal;HPM_P1;HPM_P2
2020/12/08 00:01:06;;;;;;;7.28;3.25;;;5.50;99.90;;;;;;5064600;28;20062;-64
2020/12/08 00:03:33;;;;;;;7.40;3.90;;;5.50;99.90;;;;;;5062640;28;20098;-64
2020/12/08 00:05:59;;;;;;;9.27;3.92;;;5.50;99.90;;;;;;5058858;28;20049;-64
2020/12/08 00:08:26;;;;;;;8.80;3.72;;;5.50;99.90;;;;;;5054733;28;20120;-64
2020/12/08 00:10:52;;;;;;;7.85;3.33;;;5.50;99.90;;;;;;5047422;28;20045;-64
2020/12/08 00:13:19;;;;;;;7.28;2.95;;;5.40;99.90;;;;;;5066522;28;20048;-65
2020/12/08 00:15:48;;;;;;;6.72;3.65;;;5.50;99.90;;;;;;5056813;28;20056;-64
2020/12/08 00:18:14;;;;;;;6.95;3.20;;;5.50;99.90;;;;;;5050900;28;20067;-64
2020/12/08 00:20:41;;;;;;;7.30;3.15;;;5.50;99.90;;;;;;5065114;28;20411;-64
2020/12/08 00:23:07;;;;;;;6.43;3.25;;;5.50;99.90;;;;;;5060539;28;20507;-64
2020/12/08 00:25:34;;;;;;;6.13;3.13;;;5.50;99.90;;;;;;5054461;28;20090;-64
2020/12/08 00:28:00;;;;;;;6.82;2.85;;;5.50;99.90;;;;;;5048260;28;20044;-64
2020/12/08 00:30:27;;;;;;;7.63;3.00;;;5.50;99.90;;;;;;5068734;28;20036;-64
2020/12/08 00:32:54;;;;;;;6.75;3.10;;;5.50;99.90;;;;;;5062675;28;20040;-64
2020/12/08 00:35:21;;;;;;;5.72;2.90;;;5.40;99.90;;;;;;5066200;28;20051;-64
2020/12/08 00:37:48;;;;;;;6.55;3.00;;;5.40;99.90;;;;;;5071211;28;20036;-64
2020/12/08 00:40:15;;;;;;;6.85;3.20;;;5.40;99.90;;;;;;5059983;28;20040;-64
2020/12/08 00:42:42;;;;;;;6.25;3.40;;;5.40;99.90;;;;;;5052717;28;20072;-64
2020/12/08 00:45:12;;;;;;;8.18;3.38;;;5.40;99.90;;;;;;5057074;28;20075;-64
2020/12/08 00:47:39;;;;;;;7.28;3.33;;;5.40;99.90;;;;;;5058127;28;20435;-64
2020/12/08 00:50:06;;;;;;;6.72;3.35;;;5.40;99.90;;;;;;5067589;28;20052;-64
2020/12/08 00:52:33;;;;;;;6.88;3.42;;;5.40;99.90;;;;;;5058492;28;20037;-65
2020/12/08 00:55:09;;;;;;;7.90;3.50;;;5.40;99.90;;;;;;5052306;28;20037;-65
2020/12/08 00:57:39;;;;;;;8.88;3.22;;;5.40;99.90;;;;;;5050725;28;20041;-64
2020/12/08 01:00:09;;;;;;;5.57;3.17;;;5.40;99.90;;;;;;5055419;28;20463;-64
2020/12/08 01:02:40;;;;;;;7.20;3.40;;;5.40;99.90;;;;;;5041309;28;20454;-64
2020/12/08 01:05:11;;;;;;;7.18;3.65;;;5.40;99.90;;;;;;5070128;28;20399;-64
2020/12/08 01:07:39;;;;;;;6.47;3.35;;;5.40;99.90;;;;;;5063564;28;20052;-64
2020/12/08 01:10:09;;;;;;;5.63;3.08;;;5.40;99.90;;;;;;5048270;28;20139;-64
2020/12/08 01:12:38;;;;;;;5.75;3.08;;;5.30;99.90;;;;;;5051466;28;20056;-64
2020/12/08 01:15:06;;;;;;;4.75;2.65;;;5.30;99.90;;;;;;5061076;28;20392;-65
2020/12/08 01:17:34;;;;;;;6.97;3.17;;;5.30;99.90;;;;;;5051181;28;20048;-64
2020/12/08 01:20:02;;;;;;;7.05;2.95;;;5.30;99.90;;;;;;5060854;28;20045;-64
2020/12/08 01:22:31;;;;;;;10.25;3.55;;;5.30;99.90;;;;;;5068111;28;20048;-64
2020/12/08 01:24:58;;;;;;;6.35;2.95;;;5.30;99.90;;;;;;5063662;28;20064;-64
2020/12/08 01:27:31;;;;;;;6.32;3.38;;;5.20;99.90;;;;;;5068672;28;20048;-64
2020/12/08 01:29:59;;;;;;;5.00;2.63;;;5.20;99.90;;;;;;5060736;28;20121;-64
2020/12/08 01:32:26;;;;;;;6.95;3.35;;;5.20;99.90;;;;;;5060391;28;20051;-64
2020/12/08 01:34:53;;;;;;;6.30;2.83;;;5.20;99.90;;;;;;5070185;28;20040;-64
2020/12/08 01:37:19;;;;;;;7.07;2.88;;;5.20;99.90;;;;;;5068432;28;20048;-64
2020/12/08 01:39:46;;;;;;;5.10;2.80;;;5.10;99.90;;;;;;5072537;28;20059;-64
2020/12/08 01:42:13;;;;;;;6.28;3.08;;;5.20;99.90;;;;;;5084414;28;20044;-64
2020/12/08 01:44:49;;;;;;;6.85;3.35;;;5.10;99.90;;;;;;5047499;28;20135;-64
2020/12/08 01:47:17;;;;;;;6.78;2.88;;;5.10;99.90;;;;;;5065557;28;20044;-64
2020/12/08 01:49:48;;;;;;;8.73;3.45;;;5.10;99.90;;;;;;5060013;28;20147;-64
2020/12/08 01:52:19;;;;;;;7.53;3.30;;;5.10;99.90;;;;;;5057813;28;20052;-64
2020/12/08 01:54:54;;;;;;;6.55;3.33;;;5.10;99.90;;;;;;5068292;28;20056;-64
2020/12/08 01:57:25;;;;;;;10.18;3.97;;;5.10;99.90;;;;;;5060804;28;20098;-65
2020/12/08 01:59:57;;;;;;;8.63;4.32;;;5.10;99.90;;;;;;5052966;28;20127;-65
2020/12/08 02:02:28;;;;;;;5.60;2.88;;;5.10;99.90;;;;;;5062486;28;20051;-65
2020/12/08 02:04:57;;;;;;;5.97;3.10;;;5.10;99.90;;;;;;5056273;28;20053;-65
2020/12/08 02:07:25;;;;;;;5.68;2.72;;;5.20;99.90;;;;;;5058377;28;20102;-65
2020/12/08 02:09:51;;;;;;;4.53;2.75;;;5.20;99.90;;;;;;5063307;28;20043;-64
2020/12/08 02:12:24;;;;;;;5.82;2.58;;;5.20;99.90;;;;;;5066768;28;20051;-64
2020/12/08 02:14:51;;;;;;;4.78;2.50;;;5.20;99.90;;;;;;5070565;28;20051;-64
2020/12/08 02:17:20;;;;;;;5.97;2.53;;;5.20;99.90;;;;;;5065630;28;20521;-64
2020/12/08 02:19:47;;;;;;;5.93;3.15;;;5.20;99.90;;;;;;5066604;28;20067;-64
2020/12/08 02:22:15;;;;;;;7.05;3.20;;;5.20;99.90;;;;;;5073239;28;20055;-64
2020/12/08 02:24:42;;;;;;;6.13;3.40;;;5.20;99.90;;;;;;5062425;28;20101;-64
2020/12/08 02:27:08;;;;;;;8.07;3.97;;;5.20;99.90;;;;;;5068735;28;20167;-64
2020/12/08 02:29:35;;;;;;;8.30;3.47;;;5.20;99.90;;;;;;5066069;28;20049;-64
2020/12/08 02:32:02;;;;;;;7.00;3.67;;;5.20;99.90;;;;;;5057634;28;20492;-64
2020/12/08 02:34:29;;;;;;;9.05;3.70;;;5.10;99.90;;;;;;5064968;28;20045;-64
2020/12/08 02:36:57;;;;;;;7.50;3.58;;;5.10;99.90;;;;;;5058713;28;20041;-64
2020/12/08 02:39:29;;;;;;;8.77;4.00;;;5.00;99.90;;;;;;5066781;28;20044;-64
2020/12/08 02:41:58;;;;;;;8.90;3.67;;;5.00;99.90;;;;;;5062968;28;20048;-64
2020/12/08 02:44:25;;;;;;;8.10;3.90;;;5.00;99.90;;;;;;5064769;28;20052;-64
2020/12/08 02:46:52;;;;;;;5.90;3.25;;;5.00;99.90;;;;;;5042691;28;20498;-64
2020/12/08 02:49:21;;;;;;;7.18;3.47;;;5.00;99.90;;;;;;5060293;28;20068;-64
2020/12/08 02:51:48;;;;;;;7.25;3.63;;;5.10;99.90;;;;;;5063039;28;20040;-64
2020/12/08 02:54:15;;;;;;;7.13;3.70;;;5.00;99.90;;;;;;5061345;28;20040;-64
2020/12/08 02:56:43;;;;;;;7.10;3.13;;;5.00;99.90;;;;;;5061185;28;20040;-64
2020/12/08 02:59:22;;;;;;;8.98;3.90;;;5.00;99.90;;;;;;5051533;28;20060;-64
2020/12/08 03:01:54;;;;;;;7.28;3.90;;;5.00;99.90;;;;;;5047653;28;20048;-64
2020/12/08 03:04:25;;;;;;;9.18;3.58;;;4.90;99.90;;;;;;5049685;28;20056;-64
2020/12/08 03:06:53;;;;;;;8.02;3.53;;;4.90;99.90;;;;;;5060843;28;20098;-64
2020/12/08 03:09:20;;;;;;;8.23;3.95;;;4.90;99.90;;;;;;5053453;28;20168;-64
2020/12/08 03:11:46;;;;;;;6.65;3.63;;;4.90;99.90;;;;;;5065319;28;20043;-64
2020/12/08 03:14:20;;;;;;;8.50;3.80;;;4.90;99.90;;;;;;5067774;28;20066;-64
2020/12/08 03:16:49;;;;;;;7.18;3.70;;;4.90;99.90;;;;;;5060385;28;20068;-64
2020/12/08 03:19:16;;;;;;;7.35;3.67;;;4.90;99.90;;;;;;5049446;28;20067;-64
2020/12/08 03:21:44;;;;;;;7.78;3.67;;;4.90;99.90;;;;;;5070230;28;20123;-64
2020/12/08 03:24:23;;;;;;;10.75;4.10;;;4.90;99.90;;;;;;5060697;28;20037;-64
2020/12/08 03:26:50;;;;;;;7.60;3.30;;;4.90;99.90;;;;;;5062746;28;20060;-65
2020/12/08 03:29:16;;;;;;;8.80;3.45;;;4.90;99.90;;;;;;5062837;28;20043;-64
2020/12/08 03:31:43;;;;;;;8.20;3.40;;;4.90;99.90;;;;;;5063710;28;20040;-64
2020/12/08 03:34:10;;;;;;;9.20;4.20;;;4.90;99.90;;;;;;5066746;28;20044;-64
2020/12/08 03:36:39;;;;;;;9.77;3.80;;;4.90;99.90;;;;;;5066420;28;20048;-64
2020/12/08 03:39:06;;;;;;;6.75;3.97;;;4.90;99.90;;;;;;5075470;28;20057;-64
2020/12/08 03:41:36;;;;;;;7.50;3.58;;;4.90;99.90;;;;;;5052581;28;20045;-64
2020/12/08 03:44:08;;;;;;;7.35;3.90;;;4.90;99.90;;;;;;5066106;28;20118;-64
2020/12/08 03:46:36;;;;;;;5.95;2.95;;;4.90;99.90;;;;;;5063548;28;20049;-64
2020/12/08 03:49:03;;;;;;;8.45;4.03;;;5.00;99.90;;;;;;5063272;28;20048;-64
2020/12/08 03:51:32;;;;;;;8.82;3.83;;;5.00;99.90;;;;;;5067518;28;20124;-64
2020/12/08 03:54:05;;;;;;;10.77;4.95;;;5.00;99.90;;;;;;5052271;28;20503;-64
2020/12/08 03:56:37;;;;;;;10.82;5.35;;;5.00;99.90;;;;;;5061457;28;20064;-64
2020/12/08 03:59:07;;;;;;;12.68;5.40;;;4.90;99.90;;;;;;5042795;28;20045;-64
2020/12/08 04:01:34;;;;;;;10.75;4.85;;;4.90;99.90;;;;;;5066891;28;20127;-64
2020/12/08 04:04:01;;;;;;;11.98;5.75;;;4.90;99.90;;;;;;5066648;28;20135;-64
2020/12/08 04:06:31;;;;;;;13.65;6.00;;;4.90;99.90;;;;;;5069230;28;20098;-64
2020/12/08 04:08:58;;;;;;;10.98;5.30;;;4.80;99.90;;;;;;5067736;28;20033;-64
2020/12/08 04:11:32;;;;;;;;;;;4.80;99.90;;;;;;5065972;28;20477;-64
2020/12/08 04:14:01;;;;;;;13.73;5.50;;;4.70;99.90;;;;;;5058203;28;20430;-64
2020/12/08 04:16:29;;;;;;;13.77;5.57;;;4.70;99.90;;;;;;5058621;28;20052;-64
2020/12/08 04:18:57;;;;;;;13.27;5.47;;;4.60;99.90;;;;;;5052676;28;20045;-64
2020/12/08 04:21:26;;;;;;;11.00;4.93;;;4.60;99.90;;;;;;5051327;28;20135;-64
2020/12/08 04:24:03;;;;;;;17.98;5.32;;;4.60;99.90;;;;;;5070810;28;20376;-64
2020/12/08 04:26:32;;;;;;;11.50;5.05;;;4.60;99.90;;;;;;5055922;28;20530;-64
2020/12/08 04:29:02;;;;;;;14.88;5.65;;;4.60;99.90;;;;;;5049827;28;20770;-64
2020/12/08 04:31:32;;;;;;;12.63;5.45;;;4.60;99.90;;;;;;5065502;28;20072;-64
2020/12/08 04:33:58;;;;;;;19.48;6.07;;;4.60;99.90;;;;;;5046980;28;20044;-64
2020/12/08 04:36:25;;;;;;;11.73;4.78;;;4.60;99.90;;;;;;5058877;28;20044;-64
2020/12/08 04:38:52;;;;;;;12.57;4.32;;;4.60;99.90;;;;;;5057247;28;20051;-64
2020/12/08 04:41:21;;;;;;;13.80;5.65;;;4.60;99.90;;;;;;5070306;28;20086;-64
2020/12/08 04:43:48;;;;;;;10.05;4.50;;;4.60;99.90;;;;;;5071013;28;20041;-64
2020/12/08 04:46:19;;;;;;;16.48;6.10;;;4.60;99.90;;;;;;5055822;28;20052;-64
2020/12/08 04:48:47;;;;;;;16.55;5.90;;;4.60;99.90;;;;;;5067810;28;20131;-64
2020/12/08 04:51:13;;;;;;;15.30;6.30;;;4.50;99.90;;;;;;5069104;28;20928;-64
2020/12/08 04:53:40;;;;;;;19.75;6.05;;;4.50;99.90;;;;;;5073052;28;20051;-64
2020/12/08 04:56:07;;;;;;;14.52;5.78;;;4.40;99.90;;;;;;5071250;28;20041;-64
2020/12/08 04:58:33;;;;;;;17.67;6.20;;;4.30;99.90;;;;;;5065945;28;20056;-64
2020/12/08 05:01:00;;;;;;;11.85;5.75;;;4.30;99.90;;;;;;5070866;28;20509;-64
2020/12/08 05:03:29;;;;;;;15.20;5.43;;;4.30;99.90;;;;;;5068603;28;20055;-64
2020/12/08 05:05:55;;;;;;;10.65;5.10;;;4.40;99.90;;;;;;5060517;28;20040;-64
2020/12/08 05:08:22;;;;;;;15.85;6.25;;;4.40;99.90;;;;;;5063663;28;20620;-64
2020/12/08 05:10:49;;;;;;;12.20;5.28;;;4.40;99.90;;;;;;5059803;28;20503;-64
2020/12/08 05:13:27;;;;;;;10.73;4.82;;;4.40;99.90;;;;;;5072292;28;20043;-64
2020/12/08 05:16:07;;;;;;;13.68;5.07;;;4.30;99.90;;;;;;5066640;28;20506;-64
2020/12/08 05:18:35;;;;;;;12.13;5.43;;;4.30;99.90;;;;;;5054304;28;20093;-64
2020/12/08 05:21:07;;;;;;;11.88;5.10;;;4.30;99.90;;;;;;5068778;28;20029;-64
2020/12/08 05:23:40;;;;;;;15.13;5.40;;;4.30;99.90;;;;;;5062912;28;20037;-64
2020/12/08 05:26:08;;;;;;;13.40;5.18;;;4.30;99.90;;;;;;5069814;28;20128;-64
2020/12/08 05:28:39;;;;;;;12.52;4.93;;;4.30;99.90;;;;;;5069931;28;20055;-64
2020/12/08 05:31:06;;;;;;;12.55;5.05;;;4.20;99.90;;;;;;5068590;28;20053;-64
2020/12/08 05:33:33;;;;;;;12.70;5.78;;;4.20;99.90;;;;;;5054827;28;20041;-64
2020/12/08 05:36:01;;;;;;;11.23;5.15;;;4.20;99.90;;;;;;5061152;28;20586;-64
2020/12/08 05:38:34;;;;;;;17.02;5.80;;;4.20;99.90;;;;;;5069496;28;20045;-64
2020/12/08 05:41:03;;;;;;;14.25;5.18;;;4.10;99.90;;;;;;5066294;28;20052;-64
2020/12/08 05:43:40;;;;;;;11.90;5.13;;;4.10;99.90;;;;;;5057876;28;20086;-64
2020/12/08 05:46:09;;;;;;;11.48;5.40;;;4.20;99.90;;;;;;5064458;28;20039;-64
2020/12/08 05:48:37;;;;;;;14.43;5.03;;;4.20;99.90;;;;;;5057945;28;20052;-64
2020/12/08 05:51:06;;;;;;;12.15;5.57;;;4.10;99.90;;;;;;5061713;28;20554;-64
2020/12/08 05:53:34;;;;;;;12.27;4.90;;;4.10;99.90;;;;;;5036545;28;20132;-64
2020/12/08 05:56:08;;;;;;;15.52;5.68;;;4.20;99.90;;;;;;5065513;28;20052;-64
2020/12/08 05:58:35;;;;;;;15.88;5.68;;;4.20;99.90;;;;;;5066278;28;20044;-64
2020/12/08 06:01:03;;;;;;;13.20;5.47;;;4.30;99.90;;;;;;5066978;28;20040;-64
2020/12/08 06:03:30;;;;;;;15.18;7.10;;;4.20;99.90;;;;;;5054883;28;20687;-64
2020/12/08 06:06:07;;;;;;;14.77;5.80;;;4.30;99.90;;;;;;5051451;28;20045;-64
2020/12/08 06:08:42;;;;;;;13.93;5.30;;;4.30;99.90;;;;;;5063532;28;20515;-64
2020/12/08 06:11:10;;;;;;;14.00;5.43;;;4.40;99.90;;;;;;5055484;28;20052;-64
2020/12/08 06:13:39;;;;;;;14.70;6.05;;;4.40;99.90;;;;;;5067297;28;20044;-64
2020/12/08 06:16:22;;;;;;;18.15;5.88;;;4.40;99.90;;;;;;5067647;28;20056;-64
2020/12/08 06:18:50;;;;;;;13.45;5.03;;;4.40;99.90;;;;;;5069083;28;20036;-64
2020/12/08 06:21:20;;;;;;;11.77;5.30;;;4.40;99.90;;;;;;5068633;28;20045;-64
2020/12/08 06:23:51;;;;;;;11.80;5.55;;;4.40;99.90;;;;;;5062080;28;20064;-64
2020/12/08 06:26:37;;;;;;;14.40;5.72;;;4.50;99.90;;;;;;5061809;28;20410;-64
2020/12/08 06:29:09;;;;;;;14.23;6.05;;;4.50;99.90;;;;;;5064585;28;20406;-64
2020/12/08 06:31:48;;;;;;;15.15;5.53;;;4.50;99.90;;;;;;5059136;28;20041;-64
2020/12/08 06:34:29;;;;;;;19.58;7.47;;;4.40;99.90;;;;;;5067949;28;20083;-64
2020/12/08 06:37:08;;;;;;;26.42;8.98;;;4.40;99.90;;;;;;5065363;28;20381;-64
2020/12/08 06:39:34;;;;;;;30.35;9.23;;;4.40;99.90;;;;;;5061009;28;20041;-64
2020/12/08 06:42:12;;;;;;;20.95;5.88;;;4.40;99.90;;;;;;5068049;28;20040;-64
2020/12/08 06:44:39;;;;;;;21.52;7.50;;;4.30;99.90;;;;;;5068191;28;20051;-64
2020/12/08 06:47:05;;;;;;;13.98;5.47;;;4.40;99.90;;;;;;5074880;28;20044;-64
2020/12/08 06:49:39;;;;;;;19.52;6.13;;;4.40;99.90;;;;;;5065824;28;20029;-64
2020/12/08 06:52:09;;;;;;;14.55;5.93;;;4.40;99.90;;;;;;5068951;28;20048;-64
2020/12/08 06:54:35;;;;;;;17.45;7.07;;;4.40;99.90;;;;;;5062589;28;20116;-64
2020/12/08 06:57:05;;;;;;;14.30;6.70;;;4.40;99.90;;;;;;5065905;28;20048;-64
2020/12/08 06:59:32;;;;;;;13.60;6.35;;;4.40;99.90;;;;;;5063409;28;20049;-64
2020/12/08 07:01:59;;;;;;;13.07;5.43;;;4.40;99.90;;;;;;5056680;28;20044;-64
2020/12/08 07:04:27;;;;;;;15.27;5.28;;;4.40;99.90;;;;;;5060647;28;20384;-63
2020/12/08 07:06:54;;;;;;;13.13;5.22;;;4.40;99.90;;;;;;5058814;28;20052;-63
2020/12/08 07:09:21;;;;;;;27.30;10.02;;;4.50;99.90;;;;;;5052987;28;20531;-63
2020/12/08 07:11:59;;;;;;;24.10;9.98;;;4.60;99.90;;;;;;5038472;28;20041;-63
2020/12/08 07:14:29;;;;;;;15.18;6.20;;;4.60;99.90;;;;;;5045688;28;20053;-63
2020/12/08 07:16:56;;;;;;;17.02;7.50;;;4.70;99.90;;;;;;5063058;28;20065;-63
2020/12/08 07:19:23;;;;;;;19.40;7.70;;;4.70;99.90;;;;;;5066749;28;20041;-63
2020/12/08 07:22:01;;;;;;;20.52;7.40;;;4.70;99.90;;;;;;5067653;28;20106;-64
2020/12/08 07:24:27;;;;;;;14.10;5.72;;;4.70;99.90;;;;;;5066235;28;20071;-64
2020/12/08 07:26:58;;;;;;;15.05;5.57;;;4.60;99.90;;;;;;5055301;28;20598;-63
2020/12/08 07:29:25;;;;;;;12.20;4.50;;;4.70;99.90;;;;;;5065534;28;20098;-64
2020/12/08 07:31:52;;;;;;;9.15;3.67;;;4.60;99.90;;;;;;5056667;28;20044;-63
2020/12/08 07:34:20;;;;;;;9.35;4.72;;;4.60;99.90;;;;;;5069091;28;20098;-63
2020/12/08 07:36:46;;;;;;;6.53;3.53;;;4.60;99.90;;;;;;5053850;28;20059;-63
2020/12/08 07:39:18;;;;;;;8.88;3.58;;;4.60;99.90;;;;;;5059569;28;20137;-63
2020/12/08 07:41:45;;;;;;;11.23;4.50;;;4.60;99.90;;;;;;5060722;28;20041;-63
2020/12/08 07:44:19;;;;;;;10.00;4.05;;;4.60;99.90;;;;;;5069769;28;20044;-63
2020/12/08 07:46:50;;;;;;;7.50;3.90;;;4.60;99.90;;;;;;5069753;28;20144;-65
2020/12/08 07:49:17;;;;;;;13.43;5.15;;;4.60;99.90;;;;;;5071920;28;20056;-65
2020/12/08 07:51:49;;;;;;;19.65;8.35;;;4.70;99.90;;;;;;5066681;28;20044;-65
2020/12/08 07:54:16;;;;;;;15.63;6.85;;;4.70;99.90;;;;;;5067877;28;20037;-64
2020/12/08 07:56:42;;;;;;;14.70;7.25;;;4.70;99.90;;;;;;5062457;28;20037;-64
2020/12/08 07:59:09;;;;;;;13.52;6.05;;;4.70;99.90;;;;;;5068972;28;20403;-64
2020/12/08 08:01:41;;;;;;;12.68;4.63;;;4.70;99.90;;;;;;5067637;28;20044;-64
2020/12/08 08:04:09;;;;;;;13.88;5.00;;;4.60;99.90;;;;;;5067819;28;20372;-63
2020/12/08 08:06:36;;;;;;;14.98;6.97;;;4.70;99.90;;;;;;5068038;28;20051;-64
2020/12/08 08:09:06;;;;;;;12.85;5.53;;;4.80;99.90;;;;;;5068447;28;20431;-64
2020/12/08 08:11:33;;;;;;;13.15;5.53;;;4.80;99.90;;;;;;5062179;28;20039;-63
2020/12/08 08:14:00;;;;;;;9.85;4.15;;;4.90;99.90;;;;;;5061587;28;20040;-63
2020/12/08 08:16:27;;;;;;;10.70;4.28;;;4.80;99.90;;;;;;5063865;28;20056;-63
2020/12/08 08:18:54;;;;;;;9.65;4.95;;;4.80;99.90;;;;;;5064275;28;20055;-62
2020/12/08 08:21:20;;;;;;;9.50;4.22;;;4.80;99.90;;;;;;5046189;28;20600;-62
2020/12/08 08:23:47;;;;;;;7.47;3.58;;;4.90;99.90;;;;;;5060944;28;20057;-62
2020/12/08 08:26:15;;;;;;;11.02;4.95;;;4.90;99.90;;;;;;5060726;28;20049;-62
2020/12/08 08:28:41;;;;;;;10.52;4.70;;;4.90;99.90;;;;;;5055413;28;20049;-62
2020/12/08 08:31:08;;;;;;;9.55;4.53;;;4.90;99.90;;;;;;5058386;28;20400;-62
2020/12/08 08:33:35;;;;;;;9.35;4.25;;;4.80;99.90;;;;;;5061125;28;20051;-62
2020/12/08 08:36:01;;;;;;;9.63;4.05;;;4.90;99.90;;;;;;5068445;28;20040;-62
2020/12/08 08:38:28;;;;;;;8.55;4.05;;;4.90;99.90;;;;;;5063262;28;20040;-62
2020/12/08 08:40:57;;;;;;;7.35;3.60;;;4.90;99.90;;;;;;5063321;28;20056;-62
2020/12/08 08:43:24;;;;;;;9.70;4.00;;;5.00;99.90;;;;;;5065133;28;20068;-62
2020/12/08 08:45:55;;;;;;;6.35;3.17;;;5.00;99.90;;;;;;5066882;28;20721;-62
2020/12/08 08:48:22;;;;;;;9.57;3.40;;;5.10;99.90;;;;;;5040326;28;20055;-62
2020/12/08 08:50:50;;;;;;;7.07;3.13;;;5.20;99.90;;;;;;5066525;28;20438;-62
2020/12/08 08:53:17;;;;;;;17.20;5.30;;;5.20;99.90;;;;;;5050253;28;20068;-62
2020/12/08 08:55:43;;;;;;;11.38;4.38;;;5.10;99.90;;;;;;5061465;28;20068;-62
2020/12/08 08:58:13;;;;;;;10.45;4.53;;;5.20;99.90;;;;;;5063024;28;20032;-62
2020/12/08 09:00:40;;;;;;;14.43;5.55;;;5.30;99.90;;;;;;5066724;28;20036;-62
2020/12/08 09:03:08;;;;;;;9.70;4.80;;;5.20;99.90;;;;;;5065710;28;20055;-62
2020/12/08 09:05:35;;;;;;;8.77;4.50;;;5.20;99.90;;;;;;5057923;28;20060;-62
2020/12/08 09:08:02;;;;;;;12.48;5.38;;;5.20;99.90;;;;;;5066328;28;20079;-62
2020/12/08 09:10:28;;;;;;;6.38;3.28;;;5.30;99.90;;;;;;5067953;28;20044;-62
2020/12/08 09:12:55;;;;;;;8.98;4.18;;;5.30;99.90;;;;;;5068458;28;20048;-62
2020/12/08 09:15:22;;;;;;;8.07;3.92;;;5.30;99.90;;;;;;5069768;28;20044;-62
2020/12/08 09:17:48;;;;;;;5.60;2.35;;;5.50;99.90;;;;;;5062986;28;20033;-62
2020/12/08 09:20:15;;;;;;;6.13;3.00;;;5.60;99.90;;;;;;5070254;28;20503;-61
2020/12/08 09:22:42;;;;;;;3.72;2.33;;;5.60;99.90;;;;;;5066655;28;20048;-62
2020/12/08 09:25:09;;;;;;;3.75;1.83;;;5.60;99.90;;;;;;5057022;28;20048;-62
2020/12/08 09:27:37;;;;;;;6.13;1.63;;;5.50;99.90;;;;;;5068278;28;20053;-63
2020/12/08 09:30:05;;;;;;;2.88;1.58;;;5.60;99.90;;;;;;5065725;28;20041;-62
2020/12/08 09:32:31;;;;;;;10.00;5.70;;;5.70;99.90;;;;;;5065185;28;20388;-63
2020/12/08 09:34:58;;;;;;;4.60;2.38;;;5.80;99.90;;;;;;5065162;28;20032;-61
2020/12/08 09:37:26;;;;;;;3.10;1.63;;;5.90;99.90;;;;;;5057734;28;20049;-62
2020/12/08 09:39:53;;;;;;;5.05;2.10;;;6.00;99.90;;;;;;5066259;28;20037;-62
2020/12/08 09:42:21;;;;;;;2.80;1.10;;;6.00;99.90;;;;;;5067427;28;20090;-62
2020/12/08 09:44:48;;;;;;;2.47;1.58;;;6.00;99.90;;;;;;5056986;28;20048;-62
2020/12/08 09:47:16;;;;;;;2.83;1.25;;;6.00;99.90;;;;;;5052734;28;20453;-62
2020/12/08 09:49:46;;;;;;;2.65;1.30;;;6.00;99.90;;;;;;5066746;28;20040;-61
2020/12/08 09:52:14;;;;;;;2.05;0.98;;;6.00;99.90;;;;;;5066189;28;20057;-61
2020/12/08 09:54:40;;;;;;;2.03;1.10;;;6.00;99.90;;;;;;5063967;28;20126;-62
2020/12/08 09:57:07;;;;;;;4.28;1.63;;;6.00;99.90;;;;;;5064240;28;20041;-62
2020/12/08 09:59:35;;;;;;;1.88;0.90;;;6.00;99.90;;;;;;5065492;28;20059;-62
2020/12/08 10:02:03;;;;;;;2.03;1.23;;;6.00;99.90;;;;;;5082358;28;20041;-62
2020/12/08 10:04:30;;;;;;;2.83;1.17;;;6.00;99.90;;;;;;5067869;28;20052;-62
2020/12/08 10:06:57;;;;;;;2.92;0.80;;;6.10;99.90;;;;;;5070212;28;20413;-62
2020/12/08 10:09:24;;;;;;;2.35;0.80;;;6.10;99.90;;;;;;5070571;28;20037;-62
2020/12/08 10:11:50;;;;;;;3.40;1.00;;;6.10;99.90;;;;;;5070893;28;20045;-61
2020/12/08 10:14:17;;;;;;;2.92;0.88;;;6.10;99.90;;;;;;5066469;28;20045;-61
2020/12/08 10:16:44;;;;;;;2.40;1.30;;;6.10;99.90;;;;;;5063227;28;20040;-61
2020/12/08 10:19:10;;;;;;;3.67;1.10;;;6.20;99.90;;;;;;5060098;28;20043;-61
2020/12/08 10:21:39;;;;;;;2.63;1.00;;;6.20;99.90;;;;;;5061725;28;20116;-62
2020/12/08 10:24:06;;;;;;;2.47;0.73;;;6.30;99.90;;;;;;5083170;28;20062;-62
2020/12/08 10:26:32;;;;;;;1.83;0.52;;;6.20;99.90;;;;;;5068322;28;20056;-62
2020/12/08 10:28:59;;;;;;;1.42;0.65;;;6.10;99.90;;;;;;5062801;28;20660;-62
2020/12/08 10:31:26;;;;;;;1.17;0.60;;;6.10;99.90;;;;;;5069932;28;20075;-62
2020/12/08 10:33:52;;;;;;;2.20;0.52;;;6.10;99.90;;;;;;5066854;28;20056;-62
2020/12/08 10:36:19;;;;;;;2.60;0.52;;;6.20;99.90;;;;;;5053185;28;20036;-62
2020/12/08 10:38:47;;;;;;;1.42;0.43;;;6.30;99.90;;;;;;5067450;28;20045;-62
2020/12/08 10:41:14;;;;;;;1.23;0.40;;;6.40;99.90;;;;;;5053479;28;20045;-62
2020/12/08 10:43:40;;;;;;;2.28;0.60;;;6.40;99.90;;;;;;5069827;28;20041;-62
2020/12/08 10:46:07;;;;;;;1.77;0.70;;;6.50;99.90;;;;;;5065265;28;20052;-62
2020/12/08 10:48:33;;;;;;;1.77;0.80;;;6.60;99.90;;;;;;5069391;28;20525;-62
2020/12/08 10:51:00;;;;;;;2.03;0.90;;;6.60;99.90;;;;;;5058359;28;20048;-62
2020/12/08 10:53:27;;;;;;;1.40;0.60;;;6.60;99.90;;;;;;5058320;28;20040;-62
2020/12/08 10:55:53;;;;;;;2.20;0.98;;;6.70;99.90;;;;;;5050159;28;20044;-61
2020/12/08 10:58:20;;;;;;;1.30;0.70;;;6.70;99.90;;;;;;5070308;28;20395;-61
2020/12/08 11:00:46;;;;;;;2.97;1.23;;;6.60;99.90;;;;;;5060000;28;20439;-62
2020/12/08 11:03:13;;;;;;;2.17;1.50;;;6.60;99.90;;;;;;5063392;28;20075;-61
2020/12/08 11:05:40;;;;;;;2.65;1.10;;;6.70;99.90;;;;;;5056365;28;20128;-62
2020/12/08 11:08:07;;;;;;;3.80;1.60;;;6.70;99.90;;;;;;5059228;28;20048;-62
2020/12/08 11:10:34;;;;;;;3.85;1.38;;;6.80;99.90;;;;;;5062500;28;20053;-62
2020/12/08 11:13:00;;;;;;;2.92;1.30;;;6.90;99.90;;;;;;5068013;28;20036;-62
2020/12/08 11:15:28;;;;;;;4.35;2.08;;;6.90;99.90;;;;;;5060549;28;20110;-63
2020/12/08 11:17:55;;;;;;;2.50;1.52;;;7.00;99.90;;;;;;5060399;28;20095;-62
2020/12/08 11:20:22;;;;;;;3.97;2.00;;;7.10;99.90;;;;;;5062114;28;20045;-62
2020/12/08 11:22:48;;;;;;;6.35;2.70;;;7.10;99.90;;;;;;5068902;28;20072;-62
2020/12/08 11:25:15;;;;;;;10.30;5.00;;;7.10;99.90;;;;;;5061255;28;20392;-62
2020/12/08 11:27:41;;;;;;;7.63;4.05;;;7.20;99.90;;;;;;5067700;28;20119;-63
2020/12/08 11:30:08;;;;;;;17.58;6.60;;;7.20;99.90;;;;;;5067881;28;20040;-62
2020/12/08 11:32:35;;;;;;;6.30;2.97;;;7.20;99.90;;;;;;5069461;28;20059;-63
2020/12/08 11:35:01;;;;;;;9.68;4.15;;;7.20;99.90;;;;;;5063972;28;20040;-61
2020/12/08 11:37:29;;;;;;;6.32;3.13;;;7.20;99.90;;;;;;5054179;28;20134;-61
2020/12/08 11:40:12;;;;;;;4.75;3.13;;;7.10;99.90;;;;;;5061778;28;20049;-61
2020/12/08 11:42:38;;;;;;;3.42;2.40;;;7.10;99.90;;;;;;5067114;28;20048;-61
2020/12/08 11:45:05;;;;;;;5.78;3.17;;;7.10;99.90;;;;;;5059386;28;20044;-61
2020/12/08 11:47:32;;;;;;;5.28;3.17;;;7.00;99.90;;;;;;5063512;28;20041;-61
2020/12/08 11:49:58;;;;;;;7.22;4.22;;;7.00;99.90;;;;;;5064678;28;20036;-61
2020/12/08 11:52:25;;;;;;;6.28;3.08;;;7.00;99.90;;;;;;5061800;28;20057;-61
2020/12/08 11:54:51;;;;;;;6.97;3.88;;;7.00;99.90;;;;;;5063803;28;20121;-61
2020/12/08 11:57:18;;;;;;;4.55;2.88;;;7.10;99.90;;;;;;5062279;28;20804;-62
2020/12/08 11:59:44;;;;;;;6.72;2.92;;;7.30;99.90;;;;;;5054001;28;20055;-62
2020/12/08 12:02:11;;;;;;;6.30;3.13;;;7.40;99.90;;;;;;5054908;28;20094;-61
2020/12/08 12:04:42;;;;;;;6.10;3.30;;;7.60;99.90;;;;;;5058894;28;20048;-61
2020/12/08 12:07:09;;;;;;;5.15;2.65;;;8.20;99.90;;;;;;5058742;28;20041;-62
2020/12/08 12:09:35;;;;;;;5.40;2.90;;;9.00;99.90;;;;;;5056777;28;20045;-61
2020/12/08 12:12:02;;;;;;;5.20;2.55;;;9.60;97.00;;;;;;5054896;28;20045;-62
2020/12/08 12:14:28;;;;;;;4.53;2.83;;;9.90;94.30;;;;;;5061508;28;20040;-62
2020/12/08 12:16:55;;;;;;;5.45;3.30;;;9.40;94.10;;;;;;5061543;28;20056;-61
2020/12/08 12:19:21;;;;;;;5.32;2.60;;;8.60;96.00;;;;;;5060358;28;20041;-61
2020/12/08 12:21:48;;;;;;;5.97;3.22;;;8.20;98.20;;;;;;5063974;28;20041;-62
2020/12/08 12:24:14;;;;;;;5.13;2.70;;;8.00;99.20;;;;;;5059740;28;20391;-61
2020/12/08 12:26:44;;;;;;;6.78;2.58;;;7.80;99.90;;;;;;5048277;28;20044;-62
2020/12/08 12:29:10;;;;;;;6.70;3.40;;;7.70;99.90;;;;;;5054144;28;20056;-62
2020/12/08 12:31:37;;;;;;;6.88;3.58;;;7.60;99.90;;;;;;5068724;28;20052;-61
2020/12/08 12:34:03;;;;;;;7.28;3.72;;;7.60;99.90;;;;;;5068149;28;20056;-61
2020/12/08 12:36:30;;;;;;;8.48;3.72;;;7.50;99.90;;;;;;5057453;28;21046;-61
2020/12/08 12:38:56;;;;;;;7.88;3.72;;;7.40;99.90;;;;;;5066135;28;20051;-62
2020/12/08 12:41:23;;;;;;;7.82;4.30;;;7.30;99.90;;;;;;5066755;28;20589;-62
2020/12/08 12:43:51;;;;;;;11.10;4.57;;;7.10;99.90;;;;;;5061308;28;20135;-61
2020/12/08 12:46:17;;;;;;;10.13;4.85;;;7.00;99.90;;;;;;5060453;28;20602;-61
2020/12/08 12:48:45;;;;;;;9.80;4.15;;;7.10;99.90;;;;;;5066591;28;20071;-61
2020/12/08 12:51:13;;;;;;;8.32;3.83;;;7.00;99.90;;;;;;5067910;28;20044;-61
2020/12/08 12:53:39;;;;;;;10.85;5.25;;;7.00;99.90;;;;;;5069188;28;20041;-61
2020/12/08 12:56:06;;;;;;;13.23;5.43;;;6.90;99.90;;;;;;5065847;28;20509;-61
2020/12/08 12:58:33;;;;;;;11.60;5.25;;;6.90;99.90;;;;;;5064080;28;20433;-61